Weather at Charleston Executive Airport

Public forecast

Using degrees Fahrenheit for public forecast. Weather courtesy of forecast.io.

Current aviation weather report (METAR) for Charleston Executive Airport

Retrieved 2020/11/29 16:35 UTC (0 seconds ago):

KJZI 291635Z AUTO 04011KT 9SM SCT026 BKN037 OVC043 20/17 A3006 RMK AO2

Closest aviation forecast (TAF) to Charleston Executive Airport

Closest forecast is Charleston Air Force Base-International Airport, 12.0 nm (22.3 km) N. Retrieved 2020/11/29 12:45 UTC (3 hours ago):

TAF KCHS 291138Z 2912/3012 07007KT P6SM SCT025 BKN040 FM291800 10009KT 6SM SHRA SCT015 OVC025 FM300000 14007KT 5SM BR VCSH SCT010 BKN025 FM300300 18005KT 6SM BR SCT010 BKN035 FM300600 21012G20KT P6SM VCSH SCT015 OVC035